Time,TemperatureF,DewpointF,PressureIn,WindDirection,WindDirectionDegrees,WindSpeedMPH,WindSpeedGustMPH,Humidity,HourlyPrecipIn,Conditions,Clouds,dailyrainin,SoftwareType,DateUTC
2013-02-28 00:00:00,44.2,41.6,29.73,WSW,248,0.7,0.9,91,0.00,,---,0.00,VWS V14.01,2013-02-28 05:00:00,
2013-02-28 00:05:00,44.1,41.5,29.73,North,0,0.7,0.9,91,0.00,,---,0.00,VWS V14.01,2013-02-28 05:05:00,
2013-02-28 00:10:00,44.1,41.5,29.73,West,270,1.2,1.5,91,0.00,,---,0.00,VWS V14.01,2013-02-28 05:10:00,
2013-02-28 00:15:00,44.1,41.5,29.73,NW,315,0.3,0.4,91,0.00,,---,0.00,VWS V14.01,2013-02-28 05:15:00,
2013-02-28 00:20:00,43.9,41.3,29.73,WSW,248,4.1,5.4,91,0.00,,---,0.00,VWS V14.01,2013-02-28 05:20:00,
2013-02-28 00:25:00,43.9,41.3,29.73,SW,225,5.1,6.7,91,0.00,,---,0.00,VWS V14.01,2013-02-28 05:25:00,
2013-02-28 00:30:00,43.9,41.3,29.73,West,270,0.7,0.9,91,0.00,,---,0.00,VWS V14.01,2013-02-28 05:30:00,
2013-02-28 00:35:00,43.7,41.1,29.73,WSW,248,1.8,2.4,91,0.00,,---,0.00,VWS V14.01,2013-02-28 05:35:00,
2013-02-28 00:40:00,43.7,41.1,29.73,West,270,2.1,2.8,91,0.00,,---,0.00,VWS V14.01,2013-02-28 05:40:00,
2013-02-28 00:45:00,43.5,41.2,29.73,West,270,0.7,0.9,92,0.00,,---,0.00,VWS V14.01,2013-02-28 05:45:00,
2013-02-28 00:50:00,43.7,41.4,29.73,NNW,338,1.2,1.5,92,0.00,,---,0.00,VWS V14.01,2013-02-28 05:50:00,
2013-02-28 00:55:00,43.9,41.9,29.73,WSW,248,3.6,4.7,93,0.00,,---,0.00,VWS V14.01,2013-02-28 05:55:00,
2013-02-28 01:00:00,43.9,41.3,29.73,West,270,1.8,2.4,91,0.00,,---,0.00,VWS V14.01,2013-02-28 06:00:00,
2013-02-28 01:05:00,43.9,41.6,29.73,NW,315,0.7,0.9,92,0.00,,---,0.00,VWS V14.01,2013-02-28 06:05:00,
2013-02-28 01:10:00,44.1,41.5,29.73,WSW,248,0.3,0.4,91,0.00,,---,0.00,VWS V14.01,2013-02-28 06:10:00,
2013-02-28 01:15:00,43.9,41.3,29.73,West,270,0.3,0.4,91,0.00,,---,0.00,VWS V14.01,2013-02-28 06:15:00,
2013-02-28 01:20:00,43.9,41.3,29.73,West,270,1.2,1.5,91,0.00,,---,0.00,VWS V14.01,2013-02-28 06:20:00,
2013-02-28 01:25:00,43.9,41.6,29.72,SW,225,0.3,0.9,92,0.00,,---,0.00,VWS V14.01,2013-02-28 06:25:00,
2013-02-28 01:30:00,43.9,41.3,29.73,SW,225,0.0,0.0,91,0.00,,---,0.00,VWS V14.01,2013-02-28 06:30:00,
2013-02-28 01:35:00,43.9,41.3,29.72,WSW,248,2.1,2.8,91,0.00,,---,0.00,VWS V14.01,2013-02-28 06:35:00,
2013-02-28 01:40:00,43.9,41.3,29.72,SSW,202,0.3,0.4,91,0.00,,---,0.00,VWS V14.01,2013-02-28 06:40:00,
2013-02-28 01:46:00,43.9,41.6,29.72,NW,315,1.5,1.9,92,0.00,,---,0.00,VWS V14.01,2013-02-28 06:46:00,
2013-02-28 01:51:00,43.9,41.3,29.72,NW,315,2.6,3.4,91,0.00,,---,0.00,VWS V14.01,2013-02-28 06:51:00,
2013-02-28 01:56:00,44.1,41.5,29.72,West,270,4.1,5.4,91,0.00,,---,0.00,VWS V14.01,2013-02-28 06:56:00,
2013-02-28 02:01:00,44.1,41.8,29.72,WSW,248,1.8,2.4,92,0.00,,---,0.00,VWS V14.01,2013-02-28 07:01:00,
2013-02-28 02:06:00,44.2,41.9,29.72,WSW,248,0.7,0.9,92,0.00,,---,0.00,VWS V14.01,2013-02-28 07:06:00,
2013-02-28 02:11:00,44.2,41.6,29.72,WNW,292,0.3,0.4,91,0.00,,---,0.00,VWS V14.01,2013-02-28 07:11:00,
2013-02-28 02:16:00,44.3,41.8,29.72,SW,225,4.1,5.4,91,0.00,,---,0.00,VWS V14.01,2013-02-28 07:16:00,
2013-02-28 02:21:00,44.5,42.0,29.72,WSW,248,6.6,8.6,91,0.00,,---,0.00,VWS V14.01,2013-02-28 07:21:00,
2013-02-28 02:26:00,44.5,42.0,29.72,West,270,3.0,3.9,91,0.00,,---,0.00,VWS V14.01,2013-02-28 07:26:00,
2013-02-28 02:31:00,44.5,42.0,29.72,SW,225,3.0,3.9,91,0.00,,---,0.00,VWS V14.01,2013-02-28 07:31:00,
2013-02-28 02:36:00,44.5,42.0,29.72,WSW,248,1.5,1.9,91,0.00,,---,0.00,VWS V14.01,2013-02-28 07:36:00,
2013-02-28 02:41:00,44.5,42.0,29.72,WSW,248,0.7,0.9,91,0.00,,---,0.00,VWS V14.01,2013-02-28 07:41:00,
2013-02-28 02:46:00,44.3,41.8,29.72,SW,225,5.9,7.7,91,0.00,,---,0.00,VWS V14.01,2013-02-28 07:46:00,
2013-02-28 02:51:00,44.3,41.8,29.72,WSW,248,1.2,1.5,91,0.00,,---,0.00,VWS V14.01,2013-02-28 07:51:00,
2013-02-28 02:56:00,44.3,41.8,29.72,SW,225,1.8,2.4,91,0.00,,---,0.00,VWS V14.01,2013-02-28 07:56:00,
2013-02-28 03:01:00,44.2,41.6,29.71,SSW,202,3.3,10.1,91,0.00,,---,0.00,VWS V14.01,2013-02-28 08:01:00,
2013-02-28 03:06:00,44.1,41.5,29.71,West,270,1.5,4.3,91,0.00,,---,0.00,VWS V14.01,2013-02-28 08:06:00,
2013-02-28 03:11:00,44.1,41.5,29.71,WSW,248,3.3,4.3,91,0.00,,---,0.00,VWS V14.01,2013-02-28 08:11:00,
2013-02-28 03:16:00,43.9,41.3,29.71,WNW,292,2.1,2.8,91,0.00,,---,0.00,VWS V14.01,2013-02-28 08:16:00,
2013-02-28 03:21:00,43.9,41.3,29.71,West,270,4.5,5.8,91,0.00,,---,0.00,VWS V14.01,2013-02-28 08:21:00,
2013-02-28 03:26:00,43.9,41.6,29.70,WSW,248,0.3,2.8,92,0.00,,---,0.00,VWS V14.01,2013-02-28 08:26:00,
2013-02-28 03:31:00,43.9,41.6,29.70,West,270,1.5,1.9,92,0.00,,---,0.00,VWS V14.01,2013-02-28 08:31:00,
2013-02-28 03:36:00,43.7,41.1,29.70,WSW,248,2.1,3.4,91,0.00,,---,0.00,VWS V14.01,2013-02-28 08:36:00,
2013-02-28 03:41:00,43.7,41.1,29.70,West,270,0.3,3.9,91,0.00,,---,0.00,VWS V14.01,2013-02-28 08:41:00,
2013-02-28 03:46:00,43.7,41.4,29.70,SSW,202,3.0,3.9,92,0.00,,---,0.00,VWS V14.01,2013-02-28 08:46:00,
2013-02-28 03:51:00,43.7,41.4,29.71,West,270,1.5,7.3,92,0.00,,---,0.00,VWS V14.01,2013-02-28 08:51:00,
2013-02-28 03:56:00,43.5,40.9,29.71,NW,315,2.6,3.4,91,0.00,,---,0.00,VWS V14.01,2013-02-28 08:56:00,
2013-02-28 04:01:00,43.5,40.9,29.72,NNW,338,1.8,2.4,91,0.00,,---,0.00,VWS V14.01,2013-02-28 09:01:00,
2013-02-28 04:06:00,43.3,40.7,29.72,North,0,0.7,0.9,91,0.00,,---,0.00,VWS V14.01,2013-02-28 09:06:00,
2013-02-28 04:11:00,43.2,40.6,29.72,West,270,1.2,3.9,91,0.00,,---,0.00,VWS V14.01,2013-02-28 09:11:00,
2013-02-28 04:16:00,43.2,40.6,29.72,West,270,1.2,1.5,91,0.00,,---,0.00,VWS V14.01,2013-02-28 09:16:00,
2013-02-28 04:21:00,43.2,40.6,29.73,West,270,1.2,1.5,91,0.00,,---,0.00,VWS V14.01,2013-02-28 09:21:00,
2013-02-28 04:26:00,43.2,40.6,29.72,West,270,1.2,1.5,91,0.00,,---,0.00,VWS V14.01,2013-02-28 09:26:00,
2013-02-28 04:31:00,42.3,39.7,29.73,SW,225,0.7,0.9,91,0.00,,---,0.00,VWS V14.01,2013-02-28 09:31:00,
2013-02-28 04:36:00,42.1,39.5,29.73,NW,315,0.7,0.9,91,0.00,,---,0.00,VWS V14.01,2013-02-28 09:36:00,
2013-02-28 04:41:00,41.7,39.2,29.73,West,270,0.0,0.0,91,0.00,,---,0.00,VWS V14.01,2013-02-28 09:41:00,
2013-02-28 04:46:00,41.5,39.2,29.73,West,270,0.0,0.0,92,0.00,,---,0.00,VWS V14.01,2013-02-28 09:46:00,
2013-02-28 04:51:00,41.2,39.0,29.73,West,270,0.0,0.0,92,0.00,,---,0.00,VWS V14.01,2013-02-28 09:51:00,
2013-02-28 04:56:00,41.0,38.8,29.73,West,270,0.0,0.0,92,0.00,,---,0.00,VWS V14.01,2013-02-28 09:56:00,
2013-02-28 05:01:00,40.8,38.6,29.74,NW,315,0.0,0.0,92,0.00,,---,0.00,VWS V14.01,2013-02-28 10:01:00,
2013-02-28 05:06:00,40.6,38.4,29.74,NW,315,0.0,0.0,92,0.00,,---,0.00,VWS V14.01,2013-02-28 10:06:00,
2013-02-28 05:11:00,40.6,38.4,29.74,NW,315,0.0,0.0,92,0.00,,---,0.00,VWS V14.01,2013-02-28 10:11:00,
2013-02-28 05:16:00,40.5,38.5,29.74,WNW,292,2.6,3.4,93,0.00,,---,0.00,VWS V14.01,2013-02-28 10:16:00,
2013-02-28 05:21:00,40.3,38.3,29.74,WNW,292,0.0,0.0,93,0.00,,---,0.00,VWS V14.01,2013-02-28 10:21:00,
2013-02-28 05:26:00,40.3,38.3,29.74,North,0,0.3,0.4,93,0.00,,---,0.00,VWS V14.01,2013-02-28 10:26:00,
2013-02-28 05:31:00,40.1,38.2,29.74,WSW,248,0.0,0.0,93,0.00,,---,0.00,VWS V14.01,2013-02-28 10:31:00,
2013-02-28 05:36:00,39.9,38.0,29.74,WSW,248,0.0,0.0,93,0.00,,---,0.00,VWS V14.01,2013-02-28 10:36:00,
2013-02-28 05:41:00,39.7,37.8,29.75,WSW,248,0.0,0.0,93,0.00,,---,0.00,VWS V14.01,2013-02-28 10:41:00,
2013-02-28 05:46:00,39.7,37.8,29.75,WSW,248,0.0,0.0,93,0.00,,---,0.00,VWS V14.01,2013-02-28 10:46:00,
2013-02-28 05:51:00,39.6,37.7,29.75,WSW,248,0.0,0.0,93,0.00,,---,0.00,VWS V14.01,2013-02-28 10:51:00,
2013-02-28 05:56:00,39.6,37.7,29.75,NW,315,0.0,0.0,93,0.00,,---,0.00,VWS V14.01,2013-02-28 10:56:00,
2013-02-28 06:01:00,39.6,38.0,29.75,NW,315,0.0,0.0,94,0.00,,---,0.00,VWS V14.01,2013-02-28 11:01:00,
2013-02-28 06:06:00,39.6,38.0,29.75,West,270,0.3,0.4,94,0.00,,---,0.00,VWS V14.01,2013-02-28 11:06:00,
2013-02-28 06:11:00,39.6,38.0,29.75,SW,225,0.0,0.4,94,0.00,,---,0.00,VWS V14.01,2013-02-28 11:11:00,
2013-02-28 06:16:00,39.4,37.8,29.75,SW,225,0.0,0.0,94,0.00,,---,0.00,VWS V14.01,2013-02-28 11:16:00,
2013-02-28 06:21:00,39.2,37.5,29.75,SW,225,0.0,0.0,94,0.00,,---,0.00,VWS V14.01,2013-02-28 11:21:00,
2013-02-28 06:26:00,39.0,37.4,29.75,SW,225,0.0,0.0,94,0.00,,---,0.00,VWS V14.01,2013-02-28 11:26:00,
2013-02-28 06:31:00,39.0,37.4,29.75,SW,225,0.0,0.0,94,0.00,,---,0.00,VWS V14.01,2013-02-28 11:31:00,
2013-02-28 06:36:00,38.8,37.2,29.75,SW,225,0.0,0.0,94,0.00,,---,0.00,VWS V14.01,2013-02-28 11:36:00,
2013-02-28 06:41:00,38.8,37.2,29.75,SW,225,0.0,0.0,94,0.00,,---,0.00,VWS V14.01,2013-02-28 11:41:00,
2013-02-28 06:46:00,38.7,37.1,29.75,SW,225,0.0,0.0,94,0.00,,---,0.00,VWS V14.01,2013-02-28 11:46:00,
2013-02-28 06:51:00,38.7,37.3,29.75,SW,225,0.0,0.0,95,0.00,,---,0.00,VWS V14.01,2013-02-28 11:51:00,
2013-02-28 06:56:00,38.5,36.9,29.75,SW,225,0.0,0.0,94,0.00,,---,0.00,VWS V14.01,2013-02-28 11:56:00,
2013-02-28 07:01:00,38.5,36.9,29.75,SW,225,0.0,0.0,94,0.00,,---,0.00,VWS V14.01,2013-02-28 12:01:00,
2013-02-28 07:06:00,38.7,37.3,29.74,West,270,0.3,0.4,95,0.00,,---,0.00,VWS V14.01,2013-02-28 12:06:00,
2013-02-28 07:11:00,38.7,37.3,29.75,South,180,0.0,0.0,95,0.00,,---,0.00,VWS V14.01,2013-02-28 12:11:00,
2013-02-28 07:16:00,38.8,37.4,29.74,NW,315,0.0,0.0,95,0.00,,---,0.00,VWS V14.01,2013-02-28 12:16:00,
2013-02-28 07:21:00,38.8,37.4,29.75,NW,315,0.0,0.0,95,0.00,,---,0.00,VWS V14.01,2013-02-28 12:21:00,
2013-02-28 07:26:00,39.0,37.6,29.75,NW,315,0.0,0.0,95,0.00,,---,0.00,VWS V14.01,2013-02-28 12:26:00,
2013-02-28 07:31:00,39.6,38.5,29.75,WSW,248,0.7,0.9,96,0.00,,---,0.00,VWS V14.01,2013-02-28 12:31:00,
2013-02-28 07:36:00,39.9,38.8,29.75,WSW,248,0.0,0.9,96,0.00,,---,0.00,VWS V14.01,2013-02-28 12:36:00,
2013-02-28 07:41:00,40.5,39.4,29.75,WNW,292,0.7,0.9,96,0.00,,---,0.00,VWS V14.01,2013-02-28 12:41:00,
2013-02-28 07:46:00,40.8,40.0,29.75,WSW,248,0.0,0.0,97,0.00,,---,0.00,VWS V14.01,2013-02-28 12:46:00,
2013-02-28 07:51:00,41.7,40.8,29.75,WNW,292,0.7,0.9,97,0.00,,---,0.00,VWS V14.01,2013-02-28 12:51:00,
2013-02-28 07:56:00,42.4,41.5,29.76,West,270,1.5,1.9,97,0.00,,---,0.00,VWS V14.01,2013-02-28 12:56:00,
2013-02-28 08:01:00,43.0,42.1,29.76,West,270,1.2,4.7,97,0.00,,---,0.00,VWS V14.01,2013-02-28 13:01:00,
2013-02-28 08:06:00,43.5,42.1,29.76,West,270,2.6,4.7,95,0.00,,---,0.00,VWS V14.01,2013-02-28 13:06:00,
2013-02-28 08:11:00,44.2,42.5,29.76,West,270,0.3,2.4,94,0.00,,---,0.00,VWS V14.01,2013-02-28 13:11:00,
2013-02-28 08:16:00,44.8,43.1,29.76,NNW,338,5.6,7.3,94,0.00,,---,0.00,VWS V14.01,2013-02-28 13:16:00,
2013-02-28 08:21:00,45.2,43.3,29.76,WNW,292,1.8,2.4,93,0.00,,---,0.00,VWS V14.01,2013-02-28 13:21:00,
2013-02-28 08:26:00,46.1,43.5,29.77,NW,315,1.5,7.3,91,0.00,,---,0.00,VWS V14.01,2013-02-28 13:26:00,
2013-02-28 08:31:00,46.7,43.2,29.76,West,270,5.6,7.3,88,0.00,,---,0.00,VWS V14.01,2013-02-28 13:31:00,
2013-02-28 08:36:00,47.4,44.2,29.76,West,270,1.5,7.3,89,0.00,,---,0.00,VWS V14.01,2013-02-28 13:36:00,
2013-02-28 08:42:00,47.6,43.5,29.76,WNW,292,3.0,8.6,85,0.00,,---,0.00,VWS V14.01,2013-02-28 13:42:00,
2013-02-28 08:47:00,47.7,43.3,29.76,WNW,292,3.0,8.6,84,0.00,,---,0.00,VWS V14.01,2013-02-28 13:47:00,
2013-02-28 08:52:00,48.1,44.3,29.76,NNE,22,0.7,0.9,87,0.00,,---,0.00,VWS V14.01,2013-02-28 13:52:00,
2013-02-28 08:57:00,48.8,44.3,29.76,WSW,248,7.4,9.7,84,0.00,,---,0.00,VWS V14.01,2013-02-28 13:57:00,
2013-02-28 09:02:00,48.8,44.3,29.76,WNW,292,4.1,5.4,84,0.00,,---,0.00,VWS V14.01,2013-02-28 14:02:00,
2013-02-28 09:07:00,48.8,44.3,29.76,SW,225,5.1,6.7,84,0.00,,---,0.00,VWS V14.01,2013-02-28 14:07:00,
2013-02-28 09:12:00,48.8,44.0,29.76,WNW,292,4.5,5.8,83,0.00,,---,0.00,VWS V14.01,2013-02-28 14:12:00,
2013-02-28 09:17:00,49.2,44.1,29.76,WNW,292,3.3,4.3,82,0.00,,---,0.00,VWS V14.01,2013-02-28 14:17:00,
2013-02-28 09:22:00,49.5,44.7,29.76,NNW,338,3.6,4.7,83,0.00,,---,0.00,VWS V14.01,2013-02-28 14:22:00,
2013-02-28 09:27:00,49.7,44.2,29.76,NNW,338,2.1,7.3,81,0.00,,---,0.00,VWS V14.01,2013-02-28 14:27:00,
2013-02-28 09:32:00,49.9,44.1,29.76,West,270,7.8,10.1,80,0.00,,---,0.00,VWS V14.01,2013-02-28 14:32:00,
2013-02-28 09:37:00,50.4,43.9,29.76,WNW,292,3.6,7.7,78,0.00,,---,0.00,VWS V14.01,2013-02-28 14:37:00,
2013-02-28 09:42:00,51.0,43.1,29.76,NNW,338,6.3,8.2,74,0.00,,---,0.00,VWS V14.01,2013-02-28 14:42:00,
2013-02-28 09:47:00,51.3,43.3,29.76,NW,315,3.6,8.2,74,0.00,,---,0.00,VWS V14.01,2013-02-28 14:47:00,
2013-02-28 09:52:00,52.1,42.2,29.76,West,270,4.1,5.4,69,0.00,,---,0.00,VWS V14.01,2013-02-28 14:52:00,
2013-02-28 09:57:00,52.2,43.1,29.76,NW,315,5.1,6.7,71,0.00,,---,0.00,VWS V14.01,2013-02-28 14:57:00,
2013-02-28 10:02:00,52.2,41.9,29.76,NW,315,3.3,4.3,68,0.00,,---,0.00,VWS V14.01,2013-02-28 15:02:00,
2013-02-28 10:07:00,52.2,43.1,29.76,North,0,7.8,10.1,71,0.00,,---,0.00,VWS V14.01,2013-02-28 15:07:00,
2013-02-28 10:12:00,52.4,42.1,29.75,WNW,292,4.8,10.1,68,0.00,,---,0.00,VWS V14.01,2013-02-28 15:12:00,
2013-02-28 10:17:00,52.4,40.9,29.75,WNW,292,5.6,7.3,65,0.00,,---,0.00,VWS V14.01,2013-02-28 15:17:00,
2013-02-28 10:22:00,53.0,41.9,29.75,NW,315,3.0,3.9,66,0.00,,---,0.00,VWS V14.01,2013-02-28 15:22:00,
2013-02-28 10:27:00,53.5,42.4,29.74,West,270,3.0,3.9,66,0.00,,---,0.00,VWS V14.01,2013-02-28 15:27:00,
2013-02-28 10:32:00,54.2,42.6,29.74,NNW,338,3.3,4.3,65,0.00,,---,0.00,VWS V14.01,2013-02-28 15:32:00,
2013-02-28 10:37:00,54.8,42.0,29.74,NW,315,4.8,9.7,62,0.00,,---,0.00,VWS V14.01,2013-02-28 15:37:00,
2013-02-28 10:42:00,55.2,41.9,29.74,West,270,6.3,8.2,61,0.00,,---,0.00,VWS V14.01,2013-02-28 15:42:00,
2013-02-28 10:47:00,55.4,42.6,29.74,NW,315,4.8,6.2,62,0.00,,---,0.00,VWS V14.01,2013-02-28 15:47:00,
2013-02-28 10:52:00,55.6,40.5,29.74,WNW,292,5.9,7.7,57,0.00,,---,0.00,VWS V14.01,2013-02-28 15:52:00,
2013-02-28 10:57:00,55.4,39.8,29.74,WNW,292,7.8,10.1,56,0.00,,---,0.00,VWS V14.01,2013-02-28 15:57:00,
2013-02-28 11:02:00,55.2,39.7,29.74,West,270,5.6,7.3,56,0.00,,---,0.00,VWS V14.01,2013-02-28 16:02:00,
2013-02-28 11:07:00,54.8,40.6,29.74,NW,315,1.8,2.4,59,0.00,,---,0.00,VWS V14.01,2013-02-28 16:07:00,
2013-02-28 11:12:00,55.0,38.5,29.74,West,270,7.8,10.1,54,0.00,,---,0.00,VWS V14.01,2013-02-28 16:12:00,
2013-02-28 11:17:00,54.5,39.0,29.74,WNW,292,4.5,5.8,56,0.00,,---,0.00,VWS V14.01,2013-02-28 16:17:00,
2013-02-28 11:22:00,54.8,40.1,29.74,NW,315,8.1,10.5,58,0.00,,---,0.00,VWS V14.01,2013-02-28 16:22:00,
2013-02-28 11:27:00,55.7,41.5,29.74,NW,315,5.6,7.3,59,0.00,,---,0.00,VWS V14.01,2013-02-28 16:27:00,
2013-02-28 11:32:00,56.3,40.7,29.73,SSW,202,3.0,3.9,56,0.00,,---,0.00,VWS V14.01,2013-02-28 16:32:00,
2013-02-28 11:37:00,56.6,39.5,29.73,WNW,292,3.3,4.3,53,0.00,,---,0.00,VWS V14.01,2013-02-28 16:37:00,
2013-02-28 11:42:00,57.0,39.3,29.72,West,270,7.8,10.1,52,0.00,,---,0.00,VWS V14.01,2013-02-28 16:42:00,
2013-02-28 11:47:00,56.6,40.0,29.72,SW,225,4.1,5.4,54,0.00,,---,0.00,VWS V14.01,2013-02-28 16:47:00,
2013-02-28 11:52:00,56.5,39.4,29.72,NNW,338,6.3,8.2,53,0.00,,---,0.00,VWS V14.01,2013-02-28 16:52:00,
2013-02-28 11:57:00,55.2,38.2,29.73,SW,225,1.8,5.4,53,0.00,,---,0.00,VWS V14.01,2013-02-28 16:57:00,
2013-02-28 12:02:00,54.8,38.8,29.72,NNW,338,2.6,3.4,55,0.00,,---,0.00,VWS V14.01,2013-02-28 17:02:00,
2013-02-28 12:07:00,54.3,38.8,29.72,WNW,292,4.1,5.4,56,0.00,,---,0.00,VWS V14.01,2013-02-28 17:07:00,
2013-02-28 12:12:00,54.5,39.0,29.72,NW,315,3.0,3.9,56,0.00,,---,0.00,VWS V14.01,2013-02-28 17:12:00,
2013-02-28 12:17:00,55.9,39.8,29.72,NW,315,4.1,5.4,55,0.00,,---,0.00,VWS V14.01,2013-02-28 17:17:00,
2013-02-28 12:22:00,56.3,40.7,29.72,WNW,292,7.1,9.2,56,0.00,,---,0.00,VWS V14.01,2013-02-28 17:22:00,
2013-02-28 12:27:00,56.6,39.0,29.72,West,270,7.8,10.1,52,0.00,,---,0.00,VWS V14.01,2013-02-28 17:27:00,
2013-02-28 12:32:00,56.5,40.4,29.71,WNW,292,6.6,8.6,55,0.00,,---,0.00,VWS V14.01,2013-02-28 17:32:00,
2013-02-28 12:37:00,56.6,40.0,29.72,WSW,248,4.5,5.8,54,0.00,,---,0.00,VWS V14.01,2013-02-28 17:37:00,
2013-02-28 12:42:00,58.4,42.1,29.71,NW,315,4.1,9.7,55,0.00,,---,0.00,VWS V14.01,2013-02-28 17:42:00,
2013-02-28 12:47:00,58.6,39.2,29.71,West,270,9.6,12.5,48,0.00,,---,0.00,VWS V14.01,2013-02-28 17:47:00,
2013-02-28 12:52:00,58.1,40.9,29.70,WNW,292,5.1,12.5,53,0.00,,---,0.00,VWS V14.01,2013-02-28 17:52:00,
2013-02-28 12:57:00,58.3,41.0,29.70,NW,315,4.8,6.2,53,0.00,,---,0.00,VWS V14.01,2013-02-28 17:57:00,
2013-02-28 13:02:00,57.7,40.0,29.70,North,0,7.8,10.1,52,0.00,,---,0.00,VWS V14.01,2013-02-28 18:02:00,
2013-02-28 13:07:00,57.5,40.8,29.70,NW,315,4.1,13.5,54,0.00,,---,0.00,VWS V14.01,2013-02-28 18:07:00,
2013-02-28 13:12:00,58.3,40.5,29.70,NW,315,4.8,6.2,52,0.00,,---,0.00,VWS V14.01,2013-02-28 18:12:00,
2013-02-28 13:17:00,57.7,40.0,29.70,SW,225,3.0,3.9,52,0.00,,---,0.00,VWS V14.01,2013-02-28 18:17:00,
2013-02-28 13:23:00,56.6,40.0,29.70,SW,225,3.0,3.9,54,0.00,,---,0.00,VWS V14.01,2013-02-28 18:23:00,
2013-02-28 13:28:00,56.8,40.2,29.70,NNW,338,5.9,7.7,54,0.00,,---,0.00,VWS V14.01,2013-02-28 18:28:00,
2013-02-28 13:33:00,57.7,40.0,29.70,West,270,4.5,7.7,52,0.00,,---,0.00,VWS V14.01,2013-02-28 18:33:00,
2013-02-28 13:38:00,57.9,41.7,29.70,NNW,338,7.4,9.7,55,0.00,,---,0.00,VWS V14.01,2013-02-28 18:38:00,
2013-02-28 13:43:00,56.1,39.5,29.70,North,0,6.6,8.6,54,0.00,,---,0.00,VWS V14.01,2013-02-28 18:43:00,
2013-02-28 13:48:00,54.5,39.0,29.70,NNW,338,3.6,16.8,56,0.00,,---,0.00,VWS V14.01,2013-02-28 18:48:00,
2013-02-28 13:53:00,54.2,39.1,29.70,NNW,338,1.8,2.4,57,0.00,,---,0.00,VWS V14.01,2013-02-28 18:53:00,
2013-02-28 13:58:00,54.0,39.8,29.70,NNW,338,4.1,5.4,59,0.00,,---,0.00,VWS V14.01,2013-02-28 18:58:00,
2013-02-28 14:03:00,53.9,39.3,29.70,WSW,248,3.0,3.9,58,0.00,,---,0.00,VWS V14.01,2013-02-28 19:03:00,
2013-02-28 14:08:00,53.9,39.8,29.70,WNW,292,5.6,7.3,59,0.00,,---,0.00,VWS V14.01,2013-02-28 19:08:00,
2013-02-28 14:13:00,53.3,39.2,29.70,NNW,338,3.0,3.9,59,0.00,,---,0.00,VWS V14.01,2013-02-28 19:13:00,
2013-02-28 14:18:00,53.3,39.2,29.70,NW,315,4.1,5.4,59,0.00,,---,0.00,VWS V14.01,2013-02-28 19:18:00,
2013-02-28 14:23:00,53.1,39.0,29.70,NNE,22,7.4,9.7,59,0.00,,---,0.00,VWS V14.01,2013-02-28 19:23:00,
2013-02-28 14:28:00,53.1,39.0,29.70,NNW,338,2.6,3.4,59,0.00,,---,0.00,VWS V14.01,2013-02-28 19:28:00,
2013-02-28 14:33:00,53.0,38.9,29.71,NNW,338,5.6,7.3,59,0.00,,---,0.00,VWS V14.01,2013-02-28 19:33:00,
2013-02-28 14:38:00,52.8,38.7,29.71,WNW,292,3.3,7.3,59,0.00,,---,0.00,VWS V14.01,2013-02-28 19:38:00,
2013-02-28 14:43:00,52.8,38.7,29.71,WNW,292,3.3,4.3,59,0.00,,---,0.00,VWS V14.01,2013-02-28 19:43:00,
2013-02-28 14:48:00,52.8,38.7,29.71,WNW,292,3.3,4.3,59,0.00,,---,0.00,VWS V14.01,2013-02-28 19:48:00,
2013-02-28 14:53:00,52.8,38.7,29.71,WNW,292,3.3,4.3,59,0.00,,---,0.00,VWS V14.01,2013-02-28 19:53:00,
2013-02-28 14:58:00,54.3,38.8,29.72,NW,315,7.8,10.1,56,0.00,,---,0.00,VWS V14.01,2013-02-28 19:58:00,
2013-02-28 15:03:00,53.9,38.8,29.72,WNW,292,8.9,11.6,57,0.00,,---,0.00,VWS V14.01,2013-02-28 20:03:00,
2013-02-28 15:08:00,53.5,38.0,29.72,North,0,4.1,10.1,56,0.00,,---,0.00,VWS V14.01,2013-02-28 20:08:00,
2013-02-28 15:13:00,53.1,38.1,29.72,NW,315,3.0,5.4,57,0.00,,---,0.00,VWS V14.01,2013-02-28 20:13:00,
2013-02-28 15:18:00,53.1,37.6,29.72,WNW,292,3.0,3.9,56,0.00,,---,0.00,VWS V14.01,2013-02-28 20:18:00,
2013-02-28 15:23:00,53.0,38.0,29.72,NNE,22,6.6,8.6,57,0.00,,---,0.00,VWS V14.01,2013-02-28 20:23:00,
2013-02-28 15:28:00,52.8,37.8,29.72,North,0,2.1,2.8,57,0.00,,---,0.00,VWS V14.01,2013-02-28 20:28:00,
2013-02-28 15:33:00,52.6,38.1,29.72,NW,315,3.0,3.9,58,0.00,,---,0.00,VWS V14.01,2013-02-28 20:33:00,
2013-02-28 15:38:00,52.1,37.2,29.72,WNW,292,5.9,9.7,57,0.00,,---,0.00,VWS V14.01,2013-02-28 20:38:00,
2013-02-28 15:43:00,51.7,35.4,29.72,NW,315,4.1,7.3,54,0.00,,---,0.00,VWS V14.01,2013-02-28 20:43:00,
2013-02-28 15:48:00,51.3,35.5,29.73,WNW,292,6.6,8.6,55,0.00,,---,0.00,VWS V14.01,2013-02-28 20:48:00,
2013-02-28 15:53:00,51.2,36.3,29.73,NW,315,5.6,7.3,57,0.00,,---,0.00,VWS V14.01,2013-02-28 20:53:00,
2013-02-28 15:58:00,51.0,36.2,29.73,WNW,292,2.1,7.3,57,0.00,,---,0.00,VWS V14.01,2013-02-28 20:58:00,
2013-02-28 16:03:00,51.0,36.6,29.72,NW,315,3.0,3.9,58,0.00,,---,0.00,VWS V14.01,2013-02-28 21:03:00,
2013-02-28 16:08:00,51.0,37.0,29.73,WNW,292,2.6,3.4,59,0.00,,---,0.00,VWS V14.01,2013-02-28 21:08:00,
2013-02-28 16:13:00,51.2,37.2,29.72,NW,315,1.8,5.4,59,0.00,,---,0.00,VWS V14.01,2013-02-28 21:13:00,
2013-02-28 16:18:00,51.2,37.2,29.73,NNW,338,2.6,6.2,59,0.00,,---,0.00,VWS V14.01,2013-02-28 21:18:00,
2013-02-28 16:23:00,51.0,36.6,29.73,NNW,338,5.6,7.3,58,0.00,,---,0.00,VWS V14.01,2013-02-28 21:23:00,
2013-02-28 16:28:00,50.8,36.4,29.73,NW,315,2.6,7.3,58,0.00,,---,0.00,VWS V14.01,2013-02-28 21:28:00,
2013-02-28 16:33:00,50.6,36.7,29.74,NNW,338,3.0,3.9,59,0.00,,---,0.00,VWS V14.01,2013-02-28 21:33:00,
2013-02-28 16:38:00,50.3,36.8,29.74,North,0,3.3,4.3,60,0.00,,---,0.00,VWS V14.01,2013-02-28 21:38:00,
2013-02-28 16:43:00,50.3,36.8,29.74,NW,315,3.0,5.4,60,0.00,,---,0.00,VWS V14.01,2013-02-28 21:43:00,
2013-02-28 16:48:00,50.4,37.4,29.74,North,0,0.7,3.9,61,0.00,,---,0.00,VWS V14.01,2013-02-28 21:48:00,
2013-02-28 16:53:00,50.4,36.9,29.74,NW,315,3.3,4.3,60,0.00,,---,0.00,VWS V14.01,2013-02-28 21:53:00,
2013-02-28 16:58:00,50.3,36.8,29.74,North,0,5.1,6.7,60,0.00,,---,0.00,VWS V14.01,2013-02-28 21:58:00,
2013-02-28 17:03:00,50.1,37.1,29.74,NW,315,3.0,3.9,61,0.00,,---,0.00,VWS V14.01,2013-02-28 22:03:00,
2013-02-28 17:08:00,49.9,36.9,29.75,NW,315,1.8,2.4,61,0.00,,---,0.00,VWS V14.01,2013-02-28 22:08:00,
2013-02-28 17:13:00,49.9,37.3,29.75,North,0,1.2,2.4,62,0.00,,---,0.00,VWS V14.01,2013-02-28 22:13:00,
2013-02-28 17:18:00,49.9,37.3,29.75,NW,315,1.5,1.9,62,0.00,,---,0.00,VWS V14.01,2013-02-28 22:18:00,
2013-02-28 17:23:00,49.9,37.3,29.75,NW,315,1.8,3.9,62,0.00,,---,0.00,VWS V14.01,2013-02-28 22:23:00,
2013-02-28 17:28:00,49.9,37.3,29.76,NW,315,1.8,2.4,62,0.00,,---,0.00,VWS V14.01,2013-02-28 22:28:00,
2013-02-28 17:33:00,49.9,37.3,29.76,NW,315,1.8,2.4,62,0.00,,---,0.00,VWS V14.01,2013-02-28 22:33:00,
2013-02-28 17:38:00,49.9,37.3,29.76,NW,315,1.8,2.4,62,0.00,,---,0.00,VWS V14.01,2013-02-28 22:38:00,
2013-02-28 17:43:00,48.8,36.3,29.76,West,270,2.1,4.3,62,0.00,,---,0.00,VWS V14.01,2013-02-28 22:43:00,
2013-02-28 17:48:00,48.6,36.5,29.77,West,270,3.0,3.9,63,0.00,,---,0.00,VWS V14.01,2013-02-28 22:48:00,
2013-02-28 17:53:00,48.3,36.2,29.77,NW,315,1.8,3.9,63,0.00,,---,0.00,VWS V14.01,2013-02-28 22:53:00,
2013-02-28 17:58:00,48.1,36.1,29.77,West,270,1.8,2.4,63,0.00,,---,0.00,VWS V14.01,2013-02-28 22:58:00,
2013-02-28 18:03:00,47.7,35.7,29.77,WNW,292,0.7,2.4,63,0.00,,---,0.00,VWS V14.01,2013-02-28 23:03:00,
2013-02-28 18:08:00,47.4,35.8,29.77,WNW,292,0.3,0.9,64,0.00,,---,0.00,VWS V14.01,2013-02-28 23:08:00,
2013-02-28 18:13:00,47.2,35.6,29.77,NW,315,3.0,3.9,64,0.00,,---,0.00,VWS V14.01,2013-02-28 23:13:00,
2013-02-28 18:18:00,46.5,35.4,29.77,WNW,292,0.3,0.9,65,0.00,,---,0.00,VWS V14.01,2013-02-28 23:18:00,
2013-02-28 18:23:00,45.9,34.8,29.77,West,270,1.8,2.4,65,0.00,,---,0.00,VWS V14.01,2013-02-28 23:23:00,
2013-02-28 18:28:00,45.6,34.9,29.78,NW,315,1.8,2.8,66,0.00,,---,0.00,VWS V14.01,2013-02-28 23:28:00,
2013-02-28 18:33:00,45.4,34.7,29.78,NW,315,1.2,3.9,66,0.00,,---,0.00,VWS V14.01,2013-02-28 23:33:00,
2013-02-28 18:38:00,45.2,34.5,29.78,NW,315,1.8,2.4,66,0.00,,---,0.00,VWS V14.01,2013-02-28 23:38:00,
2013-02-28 18:43:00,45.0,34.3,29.78,West,270,0.7,0.9,66,0.00,,---,0.00,VWS V14.01,2013-02-28 23:43:00,
2013-02-28 18:48:00,44.5,33.9,29.78,WNW,292,0.3,2.4,66,0.00,,---,0.00,VWS V14.01,2013-02-28 23:48:00,
2013-02-28 18:53:00,44.3,34.1,29.79,NNE,22,0.7,0.9,67,0.00,,---,0.00,VWS V14.01,2013-02-28 23:53:00,
2013-02-28 18:59:00,44.1,33.8,29.79,WNW,292,4.1,5.4,67,0.00,,---,0.00,VWS V14.01,2013-02-28 23:59:00,
2013-02-28 19:04:00,43.9,34.0,29.79,NW,315,0.3,1.9,68,0.00,,---,0.00,VWS V14.01,2013-03-01 00:04:00,
2013-02-28 19:09:00,43.7,33.8,29.79,NW,315,0.3,0.4,68,0.00,,---,0.00,VWS V14.01,2013-03-01 00:09:00,
2013-02-28 19:14:00,43.3,33.4,29.80,NNW,338,0.0,0.9,68,0.00,,---,0.00,VWS V14.01,2013-03-01 00:14:00,
2013-02-28 19:19:00,43.2,33.3,29.80,NNW,338,0.7,0.9,68,0.00,,---,0.00,VWS V14.01,2013-03-01 00:19:00,
2013-02-28 19:24:00,43.2,33.3,29.80,NW,315,0.0,2.8,68,0.00,,---,0.00,VWS V14.01,2013-03-01 00:24:00,
2013-02-28 19:29:00,43.2,33.7,29.80,NW,315,0.0,0.0,69,0.00,,---,0.00,VWS V14.01,2013-03-01 00:29:00,
2013-02-28 19:34:00,42.6,33.5,29.80,West,270,0.0,0.0,70,0.00,,---,0.00,VWS V14.01,2013-03-01 00:34:00,
2013-02-28 19:39:00,42.1,33.8,29.81,West,270,0.0,0.0,72,0.00,,---,0.00,VWS V14.01,2013-03-01 00:39:00,
2013-02-28 19:44:00,41.5,33.2,29.81,West,270,0.0,0.0,72,0.00,,---,0.00,VWS V14.01,2013-03-01 00:44:00,
2013-02-28 19:49:00,41.5,33.2,29.81,West,270,0.0,0.0,72,0.00,,---,0.00,VWS V14.01,2013-03-01 00:49:00,
2013-02-28 19:54:00,41.5,33.2,29.81,West,270,0.0,0.0,72,0.00,,---,0.00,VWS V14.01,2013-03-01 00:54:00,
2013-02-28 19:59:00,40.3,32.0,29.81,West,270,0.0,0.0,72,0.00,,---,0.00,VWS V14.01,2013-03-01 00:59:00,
2013-02-28 20:04:00,39.9,32.0,29.81,West,270,0.0,0.0,73,0.00,,---,0.00,VWS V14.01,2013-03-01 01:04:00,
2013-02-28 20:09:00,39.6,32.4,29.82,West,270,0.0,0.0,75,0.00,,---,0.00,VWS V14.01,2013-03-01 01:09:00,
2013-02-28 20:14:00,39.2,31.7,29.81,West,270,0.0,0.0,74,0.00,,---,0.00,VWS V14.01,2013-03-01 01:14:00,
2013-02-28 20:19:00,39.0,31.5,29.81,West,270,0.0,0.0,74,0.00,,---,0.00,VWS V14.01,2013-03-01 01:19:00,
2013-02-28 20:24:00,38.7,31.5,29.81,West,270,0.0,0.0,75,0.00,,---,0.00,VWS V14.01,2013-03-01 01:24:00,
2013-02-28 20:29:00,38.3,31.5,29.81,West,270,0.0,0.0,76,0.00,,---,0.00,VWS V14.01,2013-03-01 01:29:00,
2013-02-28 20:34:00,38.1,31.3,29.81,West,270,0.0,0.0,76,0.00,,---,0.00,VWS V14.01,2013-03-01 01:34:00,
2013-02-28 20:39:00,37.9,31.1,29.81,West,270,0.0,0.0,76,0.00,,---,0.00,VWS V14.01,2013-03-01 01:39:00,
2013-02-28 20:44:00,37.8,31.0,29.82,West,270,0.0,0.0,76,0.00,,---,0.00,VWS V14.01,2013-03-01 01:44:00,
2013-02-28 20:49:00,37.4,30.6,29.81,West,270,0.0,0.0,76,0.00,,---,0.00,VWS V14.01,2013-03-01 01:49:00,
2013-02-28 20:54:00,37.0,30.6,29.82,West,270,0.0,0.0,77,0.00,,---,0.00,VWS V14.01,2013-03-01 01:54:00,
2013-02-28 20:59:00,36.9,30.8,29.82,West,270,0.0,0.0,78,0.00,,---,0.00,VWS V14.01,2013-03-01 01:59:00,
2013-02-28 21:04:00,36.7,30.9,29.82,West,270,0.0,0.0,79,0.00,,---,0.00,VWS V14.01,2013-03-01 02:04:00,
2013-02-28 21:09:00,36.5,30.7,29.82,West,270,0.0,0.0,79,0.00,,---,0.00,VWS V14.01,2013-03-01 02:09:00,
2013-02-28 21:14:00,36.3,30.9,29.82,West,270,0.0,0.0,80,0.00,,---,0.00,VWS V14.01,2013-03-01 02:14:00,
2013-02-28 21:19:00,36.0,30.3,29.83,West,270,0.0,0.0,79,0.00,,---,0.00,VWS V14.01,2013-03-01 02:19:00,
2013-02-28 21:24:00,36.0,30.3,29.83,West,270,0.0,0.0,79,0.00,,---,0.00,VWS V14.01,2013-03-01 02:24:00,
2013-02-28 21:29:00,35.6,30.2,29.83,West,270,0.0,0.0,80,0.00,,---,0.00,VWS V14.01,2013-03-01 02:29:00,
2013-02-28 21:34:00,35.4,30.0,29.83,West,270,0.0,0.0,80,0.00,,---,0.00,VWS V14.01,2013-03-01 02:34:00,
2013-02-28 21:39:00,35.2,29.8,29.83,West,270,0.0,0.0,80,0.00,,---,0.00,VWS V14.01,2013-03-01 02:39:00,
2013-02-28 21:44:00,35.0,29.8,29.83,West,270,0.0,0.0,81,0.00,,---,0.00,VWS V14.01,2013-03-01 02:44:00,
2013-02-28 21:49:00,35.0,29.8,29.83,West,270,0.0,0.0,81,0.00,,---,0.00,VWS V14.01,2013-03-01 02:49:00,
2013-02-28 21:54:00,34.5,29.8,29.83,West,270,0.0,0.0,82,0.00,,---,0.00,VWS V14.01,2013-03-01 02:54:00,
2013-02-28 21:59:00,34.5,29.8,29.83,West,270,0.0,0.0,82,0.00,,---,0.00,VWS V14.01,2013-03-01 02:59:00,
2013-02-28 22:04:00,34.3,29.6,29.83,West,270,0.0,0.0,82,0.00,,---,0.00,VWS V14.01,2013-03-01 03:04:00,
2013-02-28 22:09:00,34.2,29.5,29.84,West,270,0.0,0.0,82,0.00,,---,0.00,VWS V14.01,2013-03-01 03:09:00,
2013-02-28 22:14:00,34.1,29.3,29.84,West,270,0.0,0.0,82,0.00,,---,0.00,VWS V14.01,2013-03-01 03:14:00,
2013-02-28 22:19:00,34.1,29.6,29.83,West,270,0.0,0.0,83,0.00,,---,0.00,VWS V14.01,2013-03-01 03:19:00,
2013-02-28 22:24:00,33.9,29.4,29.83,West,270,0.0,0.0,83,0.00,,---,0.00,VWS V14.01,2013-03-01 03:24:00,
2013-02-28 22:29:00,33.9,29.4,29.84,West,270,0.0,0.0,83,0.00,,---,0.00,VWS V14.01,2013-03-01 03:29:00,
2013-02-28 22:34:00,33.7,29.2,29.84,West,270,0.0,0.0,83,0.00,,---,0.00,VWS V14.01,2013-03-01 03:34:00,
2013-02-28 22:39:00,33.5,29.3,29.83,West,270,0.0,0.0,84,0.00,,---,0.00,VWS V14.01,2013-03-01 03:39:00,
2013-02-28 22:44:00,33.5,29.0,29.83,West,270,0.0,0.0,83,0.00,,---,0.00,VWS V14.01,2013-03-01 03:44:00,
2013-02-28 22:49:00,33.2,28.7,29.84,West,270,0.0,0.0,83,0.00,,---,0.00,VWS V14.01,2013-03-01 03:49:00,
2013-02-28 22:54:00,33.2,29.0,29.83,West,270,0.0,0.0,84,0.00,,---,0.00,VWS V14.01,2013-03-01 03:54:00,
2013-02-28 22:59:00,33.0,28.8,29.83,West,270,0.0,0.0,84,0.00,,---,0.00,VWS V14.01,2013-03-01 03:59:00,
2013-02-28 23:04:00,33.0,28.8,29.83,West,270,0.0,0.0,84,0.00,,---,0.00,VWS V14.01,2013-03-01 04:04:00,
2013-02-28 23:09:00,33.0,28.8,29.83,West,270,0.0,0.0,84,0.00,,---,0.00,VWS V14.01,2013-03-01 04:09:00,
2013-02-28 23:14:00,32.8,28.9,29.83,West,270,0.0,0.0,85,0.00,,---,0.00,VWS V14.01,2013-03-01 04:14:00,
2013-02-28 23:19:00,32.8,28.6,29.83,West,270,0.0,0.0,84,0.00,,---,0.00,VWS V14.01,2013-03-01 04:19:00,
2013-02-28 23:24:00,32.8,28.9,29.83,WNW,292,0.0,0.0,85,0.00,,---,0.00,VWS V14.01,2013-03-01 04:24:00,
2013-02-28 23:29:00,32.8,28.9,29.83,WNW,292,0.0,0.0,85,0.00,,---,0.00,VWS V14.01,2013-03-01 04:29:00,
2013-02-28 23:34:00,32.6,29.0,29.83,WNW,292,0.0,0.0,87,0.00,,---,0.00,VWS V14.01,2013-03-01 04:34:00,
2013-02-28 23:39:00,32.6,29.0,29.83,WNW,292,0.0,0.0,87,0.00,,---,0.00,VWS V14.01,2013-03-01 04:39:00,
2013-02-28 23:44:00,32.8,28.9,29.83,North,0,0.0,0.0,85,0.00,,---,0.00,VWS V14.01,2013-03-01 04:44:00,
2013-02-28 23:49:00,32.6,28.7,29.83,North,0,0.0,0.0,85,0.00,,---,0.00,VWS V14.01,2013-03-01 04:49:00,
2013-02-28 23:54:00,32.6,29.3,29.83,North,0,0.0,0.0,88,0.00,,---,0.00,VWS V14.01,2013-03-01 04:54:00,
2013-02-28 23:59:00,32.8,29.8,29.83,North,0,0.0,0.0,89,0.00,,---,0.00,VWS V14.01,2013-03-01 04:59:00,